createdAt,value
2019-05-02T00:00:43.328Z,9.20
2019-05-02T00:03:12.488Z,9.10
2019-05-02T00:05:41.135Z,9.10
2019-05-02T00:08:09.835Z,9.10
2019-05-02T00:10:38.898Z,9.20
2019-05-02T00:13:08.398Z,9.20
2019-05-02T00:15:38.256Z,9.00
2019-05-02T00:18:08.534Z,8.90
2019-05-02T00:20:37.317Z,8.70
2019-05-02T00:23:06.326Z,8.60
2019-05-02T00:25:35.215Z,8.50
2019-05-02T00:28:07.776Z,8.40
2019-05-02T00:30:35.806Z,8.20
2019-05-02T00:33:04.913Z,8.10
2019-05-02T00:35:33.650Z,8.00
2019-05-02T00:38:02.680Z,7.80
2019-05-02T00:40:32.534Z,7.70
2019-05-02T00:43:01.179Z,7.60
2019-05-02T00:45:29.841Z,7.60
2019-05-02T00:48:00.152Z,7.60
2019-05-02T00:50:30.568Z,7.60
2019-05-02T00:52:59.302Z,7.50
2019-05-02T00:55:28.987Z,7.50
2019-05-02T00:57:58.177Z,7.50
2019-05-02T01:00:26.929Z,7.40
2019-05-02T01:02:57.174Z,7.40
2019-05-02T01:05:26.084Z,7.40
2019-05-02T01:07:56.062Z,7.50
2019-05-02T01:10:25.150Z,7.50
2019-05-02T01:12:53.731Z,7.60
2019-05-02T01:15:22.548Z,7.60
2019-05-02T01:17:51.231Z,7.60
2019-05-02T01:20:22.281Z,7.60
2019-05-02T01:22:52.208Z,7.60
2019-05-02T01:25:20.480Z,7.50
2019-05-02T01:27:50.792Z,7.50
2019-05-02T01:30:26.765Z,7.40
2019-05-02T01:33:01.330Z,7.40
2019-05-02T01:35:32.748Z,7.50
2019-05-02T01:38:19.256Z,7.50
2019-05-02T01:40:53.323Z,7.40
2019-05-02T01:43:28.965Z,7.30
2019-05-02T01:45:57.702Z,7.30
2019-05-02T01:48:26.968Z,7.30
2019-05-02T01:50:55.874Z,7.30
2019-05-02T01:53:24.580Z,7.30
2019-05-02T01:55:57.360Z,7.30
2019-05-02T01:58:23.901Z,7.30
2019-05-02T02:00:52.613Z,7.30
2019-05-02T02:03:21.494Z,7.30
2019-05-02T02:05:50.086Z,7.30
2019-05-02T02:08:18.838Z,7.30
2019-05-02T02:10:50.548Z,7.40
2019-05-02T02:13:17.867Z,7.40
2019-05-02T02:15:46.534Z,7.60
2019-05-02T02:18:16.443Z,7.60
2019-05-02T02:20:50.209Z,7.60
2019-05-02T02:23:29.494Z,7.60
2019-05-02T02:26:06.652Z,7.50
2019-05-02T02:28:33.203Z,7.50
2019-05-02T02:31:05.068Z,7.50
2019-05-02T02:33:32.325Z,7.50
2019-05-02T02:36:01.040Z,7.60
2019-05-02T02:38:33.768Z,7.50
2019-05-02T02:40:59.989Z,7.50
2019-05-02T02:43:34.357Z,7.60
2019-05-02T02:46:16.020Z,7.60
2019-05-02T02:48:44.648Z,7.60
2019-05-02T02:51:22.008Z,7.60
2019-05-02T02:53:43.823Z,7.70
2019-05-02T02:56:12.439Z,7.80
2019-05-02T02:58:45.798Z,7.80
2019-05-02T03:01:11.423Z,7.80
2019-05-02T03:03:40.183Z,7.90
2019-05-02T03:06:08.974Z,7.90
2019-05-02T03:08:45.937Z,7.90
2019-05-02T03:11:09.855Z,7.90
2019-05-02T03:13:51.008Z,8.00
2019-05-02T03:16:18.084Z,8.00
2019-05-02T03:18:46.741Z,8.10
2019-05-02T03:21:20.846Z,8.10
2019-05-02T03:23:45.711Z,8.20
2019-05-02T03:26:15.596Z,8.20
2019-05-02T03:28:45.108Z,8.30
2019-05-02T03:31:23.670Z,8.40
2019-05-02T03:33:54.461Z,8.50
2019-05-02T03:36:27.979Z,8.50
2019-05-02T03:38:45.365Z,8.50
2019-05-02T03:41:20.715Z,8.50
2019-05-02T03:43:44.620Z,8.70
2019-05-02T03:46:20.009Z,8.80
2019-05-02T03:48:43.740Z,8.80
2019-05-02T03:51:20.954Z,8.90
2019-05-02T03:53:42.815Z,9.00
2019-05-02T03:56:14.197Z,9.00
2019-05-02T03:58:48.414Z,9.10
2019-05-02T04:01:12.315Z,9.10
2019-05-02T04:03:43.780Z,9.10
2019-05-02T04:06:13.981Z,9.20
2019-05-02T04:08:44.115Z,9.20
2019-05-02T04:11:19.108Z,9.20
2019-05-02T04:13:48.713Z,9.30
2019-05-02T04:16:18.085Z,9.20
2019-05-02T04:18:54.527Z,9.20
2019-05-02T04:21:24.529Z,9.20
2019-05-02T04:23:49.271Z,9.30
2019-05-02T04:26:18.806Z,9.30
2019-05-02T04:28:51.909Z,9.30
2019-05-02T04:31:17.999Z,9.40
2019-05-02T04:33:46.618Z,9.40
2019-05-02T04:36:17.947Z,9.40
2019-05-02T04:38:48.750Z,9.50
2019-05-02T04:41:18.935Z,9.40
2019-05-02T04:43:51.466Z,9.40
2019-05-02T04:46:22.130Z,9.40
2019-05-02T04:48:49.751Z,9.40
2019-05-02T04:51:20.230Z,9.40
2019-05-02T04:53:49.801Z,9.40
2019-05-02T04:56:18.507Z,9.50
2019-05-02T04:58:49.531Z,9.50
2019-05-02T05:01:20.538Z,9.40
2019-05-02T05:03:56.996Z,9.50
2019-05-02T05:06:18.984Z,9.50
2019-05-02T05:08:48.263Z,9.60
2019-05-02T05:11:20.780Z,9.60
2019-05-02T05:13:48.023Z,9.70
2019-05-02T05:16:18.666Z,9.70
2019-05-02T05:18:49.278Z,9.70
2019-05-02T05:21:18.067Z,9.70
2019-05-02T05:24:01.319Z,9.70
2019-05-02T05:26:33.830Z,9.80
2019-05-02T05:28:59.985Z,9.90
2019-05-02T05:31:29.302Z,10.00
2019-05-02T05:33:58.130Z,9.90
2019-05-02T05:36:32.684Z,9.80
2019-05-02T05:38:58.214Z,10.00
2019-05-02T05:41:27.737Z,10.00
2019-05-02T05:43:57.386Z,9.90
2019-05-02T05:46:28.000Z,9.90
2019-05-02T05:48:58.271Z,9.90
2019-05-02T05:51:27.743Z,10.00
2019-05-02T05:54:02.673Z,9.90
2019-05-02T05:56:27.898Z,9.90
2019-05-02T05:58:59.195Z,10.10
2019-05-02T06:01:34.339Z,10.20
2019-05-02T06:03:58.222Z,10.20
2019-05-02T06:06:27.382Z,10.30
2019-05-02T06:08:56.472Z,10.30
2019-05-02T06:11:25.171Z,10.40
2019-05-02T06:13:53.738Z,10.40
2019-05-02T06:16:22.429Z,10.70
2019-05-02T06:18:51.162Z,10.40
2019-05-02T06:21:19.961Z,10.40
2019-05-02T06:23:49.107Z,10.60
2019-05-02T06:26:17.904Z,10.60
2019-05-02T06:28:46.556Z,10.80
2019-05-02T06:31:17.062Z,11.00
2019-05-02T06:33:45.786Z,11.20
2019-05-02T06:36:14.524Z,11.30
2019-05-02T06:38:43.190Z,11.80
2019-05-02T06:41:16.091Z,11.60
2019-05-02T06:43:46.728Z,11.90
2019-05-02T06:46:16.415Z,11.60
2019-05-02T06:48:43.050Z,11.70
2019-05-02T06:51:19.651Z,11.60
2019-05-02T06:53:47.081Z,11.80
2019-05-02T06:56:12.695Z,11.70
2019-05-02T06:58:43.414Z,11.40
2019-05-02T07:01:16.303Z,11.20
2019-05-02T07:03:46.318Z,11.30
2019-05-02T07:06:13.398Z,11.00
2019-05-02T07:08:42.088Z,11.10
2019-05-02T07:11:10.913Z,11.20
2019-05-02T07:13:41.893Z,11.30
2019-05-02T07:16:24.078Z,11.20
2019-05-02T07:18:49.631Z,10.90
2019-05-02T07:21:23.225Z,10.90
2019-05-02T07:23:53.735Z,11.00
2019-05-02T07:26:21.182Z,11.00
2019-05-02T07:28:49.565Z,10.90
2019-05-02T07:31:18.355Z,10.70
2019-05-02T07:33:47.070Z,10.70
2019-05-02T07:36:15.811Z,10.80
2019-05-02T07:38:44.486Z,10.70
2019-05-02T07:41:13.459Z,10.70
2019-05-02T07:43:42.110Z,10.70
2019-05-02T07:46:10.788Z,10.50
2019-05-02T07:48:39.493Z,10.70
2019-05-02T07:51:08.146Z,10.70
2019-05-02T07:53:36.809Z,10.60
2019-05-02T07:56:05.574Z,10.50
2019-05-02T07:58:38.499Z,10.50
2019-05-02T08:01:08.062Z,10.70
2019-05-02T08:03:34.969Z,10.50
2019-05-02T08:06:03.582Z,10.60
2019-05-02T08:08:32.200Z,10.60
2019-05-02T08:11:03.037Z,10.70
2019-05-02T08:13:31.625Z,10.60
2019-05-02T08:16:00.304Z,10.70
2019-05-02T08:18:30.340Z,10.60
2019-05-02T08:20:59.497Z,10.60
2019-05-02T08:23:28.301Z,10.60
2019-05-02T08:25:57.029Z,10.60
2019-05-02T08:28:46.917Z,10.60
2019-05-02T08:31:13.675Z,10.60
2019-05-02T08:33:43.209Z,10.50
2019-05-02T08:36:12.083Z,10.60
2019-05-02T08:38:40.680Z,10.80
2019-05-02T08:41:09.372Z,11.10
2019-05-02T08:43:40.063Z,11.10
2019-05-02T08:46:09.478Z,10.80
2019-05-02T08:48:41.870Z,10.60
2019-05-02T08:51:09.105Z,10.70
2019-05-02T08:53:37.794Z,10.70
2019-05-02T08:56:06.533Z,10.60
2019-05-02T08:58:35.131Z,10.60
2019-05-02T09:01:03.799Z,10.80
2019-05-02T09:03:38.849Z,11.00
2019-05-02T09:06:05.894Z,11.10
2019-05-02T09:08:34.293Z,11.10
2019-05-02T09:11:02.880Z,11.30
2019-05-02T09:13:33.023Z,11.30
2019-05-02T09:16:05.242Z,11.10
2019-05-02T09:18:38.612Z,10.80
2019-05-02T09:21:02.457Z,11.00
2019-05-02T09:23:33.240Z,11.00
2019-05-02T09:26:02.586Z,10.90
2019-05-02T09:28:32.069Z,10.90
2019-05-02T09:31:05.115Z,11.00
2019-05-02T09:33:32.243Z,11.00
2019-05-02T09:36:02.366Z,11.20
2019-05-02T09:38:32.868Z,11.00
2019-05-02T09:41:15.314Z,11.20
2019-05-02T09:43:34.831Z,11.10
2019-05-02T09:46:02.618Z,11.10
2019-05-02T09:48:31.898Z,11.00
2019-05-02T09:51:04.675Z,10.90
2019-05-02T09:53:32.333Z,10.90
2019-05-02T09:56:02.175Z,11.00
2019-05-02T09:58:32.095Z,10.80
2019-05-02T10:01:04.110Z,10.90
2019-05-02T10:03:32.763Z,11.00
2019-05-02T10:06:03.150Z,10.80
2019-05-02T10:08:32.186Z,10.80
2019-05-02T10:11:02.804Z,10.80
2019-05-02T10:13:33.007Z,10.70
2019-05-02T10:16:02.128Z,10.60
2019-05-02T10:18:32.996Z,10.40
2019-05-02T10:21:03.028Z,10.50
2019-05-02T10:23:32.181Z,10.60
2019-05-02T10:26:02.804Z,10.60
2019-05-02T10:28:31.796Z,10.80
2019-05-02T10:31:02.282Z,10.70
2019-05-02T10:33:33.517Z,10.80
2019-05-02T10:36:02.670Z,10.70
2019-05-02T10:38:32.601Z,10.70
2019-05-02T10:41:02.595Z,10.60
2019-05-02T10:43:32.944Z,10.60
2019-05-02T10:46:06.385Z,10.80
2019-05-02T10:48:36.769Z,11.00
2019-05-02T10:51:13.011Z,11.00
2019-05-02T10:53:42.418Z,10.80
2019-05-02T10:56:11.802Z,10.90
2019-05-02T10:58:42.546Z,11.10
2019-05-02T11:01:12.278Z,10.80
2019-05-02T11:03:46.257Z,11.00
2019-05-02T11:06:13.208Z,11.20
2019-05-02T11:08:45.866Z,11.00
2019-05-02T11:11:12.758Z,10.90
2019-05-02T11:14:05.584Z,10.80
2019-05-02T11:16:39.426Z,10.90
2019-05-02T11:19:13.065Z,10.80
2019-05-02T11:21:53.478Z,11.00
2019-05-02T11:24:14.364Z,11.10
2019-05-02T11:26:43.004Z,11.10
2019-05-02T11:29:12.212Z,11.10
2019-05-02T11:31:42.715Z,11.10
2019-05-02T11:34:12.440Z,11.10
2019-05-02T11:36:42.009Z,10.90
2019-05-02T11:39:18.337Z,10.70
2019-05-02T11:41:42.214Z,10.90
2019-05-02T11:44:12.133Z,10.80
2019-05-02T11:46:43.041Z,10.90
2019-05-02T11:49:12.244Z,11.00
2019-05-02T11:51:42.194Z,11.00
2019-05-02T11:54:12.921Z,11.10
2019-05-02T11:56:49.093Z,11.10
2019-05-02T11:59:14.764Z,11.00
2019-05-02T12:01:56.543Z,10.90
2019-05-02T12:04:16.896Z,10.90
2019-05-02T12:06:44.611Z,10.80
2019-05-02T12:09:14.272Z,10.70
2019-05-02T12:11:43.026Z,10.60
2019-05-02T12:14:12.305Z,10.50
2019-05-02T12:16:43.010Z,10.60
2019-05-02T12:19:14.697Z,10.50
2019-05-02T12:21:43.293Z,10.50
2019-05-02T12:24:12.679Z,10.30
2019-05-02T12:26:41.935Z,10.30
2019-05-02T12:29:12.194Z,10.30
2019-05-02T12:31:42.662Z,10.20
2019-05-02T12:34:12.004Z,10.30
2019-05-02T12:36:42.629Z,10.40
2019-05-02T12:39:12.638Z,10.50
2019-05-02T12:41:42.264Z,10.50
2019-05-02T12:44:11.799Z,10.40
2019-05-02T12:46:42.165Z,10.30
2019-05-02T12:49:22.627Z,10.30
2019-05-02T12:51:42.899Z,10.30
2019-05-02T12:54:12.411Z,10.20
2019-05-02T12:56:41.860Z,10.20
2019-05-02T12:59:11.889Z,10.10
2019-05-02T13:01:42.135Z,10.10
2019-05-02T13:04:13.013Z,10.30
2019-05-02T13:06:42.265Z,10.20
2019-05-02T13:09:12.835Z,10.10
2019-05-02T13:11:49.410Z,10.10
2019-05-02T13:14:20.003Z,10.20
2019-05-02T13:16:53.460Z,10.30
2019-05-02T13:19:22.336Z,10.20
2019-05-02T13:21:59.719Z,10.30
2019-05-02T13:24:33.366Z,10.50
2019-05-02T13:27:04.344Z,10.60
2019-05-02T13:29:32.452Z,10.90
2019-05-02T13:32:03.018Z,10.80
2019-05-02T13:34:44.027Z,11.00
2019-05-02T13:37:14.732Z,10.80
2019-05-02T13:39:54.505Z,10.70
2019-05-02T13:42:23.191Z,11.00
2019-05-02T13:44:53.594Z,11.00
2019-05-02T13:47:27.235Z,10.80
2019-05-02T13:50:00.501Z,10.50
2019-05-02T13:52:27.510Z,10.60
2019-05-02T13:54:56.247Z,10.50
2019-05-02T13:57:25.012Z,10.50
2019-05-02T13:59:53.722Z,10.30
2019-05-02T14:02:42.804Z,10.10
2019-05-02T14:05:14.001Z,10.20
2019-05-02T14:07:48.238Z,10.50
2019-05-02T14:10:16.831Z,10.60
2019-05-02T14:12:49.995Z,10.60
2019-05-02T14:15:22.063Z,10.50
2019-05-02T14:17:52.520Z,10.50
2019-05-02T14:20:22.372Z,10.40
2019-05-02T14:22:52.682Z,10.70
2019-05-02T14:25:22.342Z,10.60
2019-05-02T14:27:54.498Z,10.50
2019-05-02T14:30:35.978Z,10.50
2019-05-02T14:32:54.424Z,10.70
2019-05-02T14:35:28.200Z,10.70
2019-05-02T14:38:13.072Z,10.50
2019-05-02T14:41:03.372Z,10.50
2019-05-02T14:43:53.282Z,10.50
2019-05-02T14:46:22.986Z,10.60
2019-05-02T14:48:52.455Z,10.60
2019-05-02T14:51:27.142Z,10.60
2019-05-02T14:53:52.725Z,10.50
2019-05-02T14:56:45.964Z,10.60
2019-05-02T14:59:15.329Z,10.50
2019-05-02T15:01:42.150Z,10.20
2019-05-02T15:04:12.842Z,9.90
2019-05-02T15:06:45.441Z,9.90
2019-05-02T15:09:12.137Z,9.60
2019-05-02T15:11:58.739Z,9.40
2019-05-02T15:14:28.671Z,9.30
2019-05-02T15:16:58.477Z,9.50
2019-05-02T15:19:27.660Z,9.50
2019-05-02T15:21:56.422Z,9.50
2019-05-02T15:24:27.674Z,9.60
2019-05-02T15:26:55.408Z,9.80
2019-05-02T15:29:27.304Z,9.60
2019-05-02T15:32:07.101Z,9.60
2019-05-02T15:34:53.103Z,9.50
2019-05-02T15:37:25.613Z,9.50
2019-05-02T15:42:24.639Z,9.50
2019-05-02T15:44:57.222Z,9.50
2019-05-02T15:47:22.981Z,9.50
2019-05-02T15:49:52.833Z,9.40
2019-05-02T15:52:27.762Z,9.30
2019-05-02T15:54:59.577Z,9.30
2019-05-02T15:57:26.611Z,9.30
2019-05-02T15:59:55.534Z,9.30
2019-05-02T16:02:26.728Z,9.30
2019-05-02T16:04:57.149Z,9.40
2019-05-02T16:07:25.914Z,9.30
2019-05-02T16:09:57.249Z,9.30
2019-05-02T16:12:27.182Z,9.30
2019-05-02T16:14:55.068Z,9.20
2019-05-02T16:17:25.780Z,9.20
2019-05-02T16:19:58.642Z,9.20
2019-05-02T16:22:26.402Z,9.20
2019-05-02T16:24:56.665Z,9.20
2019-05-02T16:27:45.687Z,9.10
2019-05-02T16:30:17.514Z,9.20
2019-05-02T16:32:48.019Z,9.30
2019-05-02T16:35:18.395Z,9.10
2019-05-02T16:37:51.594Z,9.10
2019-05-02T16:40:23.920Z,9.20
2019-05-02T16:42:48.968Z,9.00
2019-05-02T16:45:18.141Z,8.90
2019-05-02T16:47:49.753Z,8.80
2019-05-02T16:50:18.727Z,8.80
2019-05-02T16:52:47.605Z,8.80
2019-05-02T16:55:21.234Z,8.70
2019-05-02T16:57:48.388Z,8.70
2019-05-02T17:00:23.620Z,8.70
2019-05-02T17:02:52.507Z,8.50
2019-05-02T17:05:22.081Z,8.40
2019-05-02T17:07:52.973Z,8.20
2019-05-02T17:10:24.526Z,8.00
2019-05-02T17:12:57.684Z,8.10
2019-05-02T17:15:26.292Z,8.10
2019-05-02T17:17:56.684Z,8.00
2019-05-02T17:20:25.442Z,8.10
2019-05-02T17:23:01.846Z,8.10
2019-05-02T17:25:24.535Z,8.00
2019-05-02T17:28:01.085Z,8.00
2019-05-02T17:30:23.685Z,7.90
2019-05-02T17:32:52.374Z,8.10
2019-05-02T17:35:22.184Z,8.10
2019-05-02T17:37:52.445Z,8.10
2019-05-02T17:40:25.773Z,8.10
2019-05-02T17:42:52.420Z,8.10
2019-05-02T17:45:23.912Z,8.00
2019-05-02T17:47:52.930Z,8.10
2019-05-02T17:50:29.261Z,8.00
2019-05-02T17:53:00.966Z,8.00
2019-05-02T17:55:32.744Z,8.10
2019-05-02T17:58:04.597Z,8.00
2019-05-02T18:00:33.398Z,7.90
2019-05-02T18:03:02.547Z,8.00
2019-05-02T18:05:35.486Z,7.90
2019-05-02T18:08:01.567Z,7.80
2019-05-02T18:10:32.189Z,7.70
2019-05-02T18:13:02.529Z,7.50
2019-05-02T18:15:34.752Z,7.40
2019-05-02T18:18:06.417Z,7.20
2019-05-02T18:20:32.483Z,7.20
2019-05-02T18:23:03.057Z,7.00
2019-05-02T18:25:31.619Z,6.70
2019-05-02T18:28:02.276Z,6.40
2019-05-02T18:30:30.852Z,6.30
2019-05-02T18:33:03.503Z,6.30
2019-05-02T18:35:29.822Z,6.30
2019-05-02T18:37:58.629Z,6.30
2019-05-02T18:40:29.696Z,6.30
2019-05-02T18:43:03.922Z,6.30
2019-05-02T18:45:28.757Z,6.30
2019-05-02T18:48:04.020Z,6.20
2019-05-02T18:50:31.900Z,6.20
2019-05-02T18:53:01.158Z,6.20
2019-05-02T18:55:31.678Z,6.20
2019-05-02T18:58:02.294Z,6.20
2019-05-02T19:00:37.751Z,6.10
2019-05-02T19:03:02.790Z,6.00
2019-05-02T19:05:32.536Z,5.90
2019-05-02T19:08:02.394Z,5.90
2019-05-02T19:10:32.399Z,5.90
2019-05-02T19:13:04.467Z,5.80
2019-05-02T19:15:34.535Z,5.80
2019-05-02T19:18:02.583Z,5.90
2019-05-02T19:20:34.617Z,5.80
2019-05-02T19:23:03.317Z,6.00
2019-05-02T19:25:32.281Z,5.90
2019-05-02T19:28:02.923Z,6.00
2019-05-02T19:30:39.153Z,5.90
2019-05-02T19:33:08.121Z,5.90
2019-05-02T19:35:37.654Z,5.90
2019-05-02T19:38:07.124Z,6.00
2019-05-02T19:40:35.722Z,6.00
2019-05-02T19:43:07.635Z,6.00
2019-05-02T19:45:34.859Z,5.90
2019-05-02T19:48:03.470Z,5.90
2019-05-02T19:50:39.021Z,5.80
2019-05-02T19:53:05.190Z,5.80
2019-05-02T19:55:34.421Z,5.80
2019-05-02T19:58:06.419Z,5.70
2019-05-02T20:00:36.718Z,5.60
2019-05-02T20:03:04.347Z,5.60
2019-05-02T20:05:33.233Z,5.60
2019-05-02T20:08:02.536Z,5.50
2019-05-02T20:10:32.151Z,5.50
2019-05-02T20:13:03.160Z,5.50
2019-05-02T20:15:33.166Z,5.40
2019-05-02T20:18:04.792Z,5.40
2019-05-02T20:20:48.628Z,5.40
2019-05-02T20:23:18.746Z,5.40
2019-05-02T20:25:47.615Z,5.40
2019-05-02T20:28:16.284Z,5.40
2019-05-02T20:30:44.918Z,5.40
2019-05-02T20:33:13.654Z,5.30
2019-05-02T20:35:42.301Z,5.40
2019-05-02T20:38:11.755Z,5.30
2019-05-02T20:40:42.646Z,5.30
2019-05-02T20:43:12.112Z,5.30
2019-05-02T20:45:41.087Z,5.30
2019-05-02T20:48:11.787Z,5.20
2019-05-02T20:50:40.032Z,5.10
2019-05-02T20:53:08.858Z,5.10
2019-05-02T20:55:37.504Z,5.00
2019-05-02T20:58:06.270Z,5.00
2019-05-02T21:00:35.122Z,4.90
2019-05-02T21:03:04.035Z,4.80
2019-05-02T21:05:43.229Z,4.80
2019-05-02T21:08:21.902Z,4.80
2019-05-02T21:10:57.699Z,4.70
2019-05-02T21:13:26.321Z,4.60
2019-05-02T21:15:55.558Z,4.50
2019-05-02T21:18:24.278Z,4.50
2019-05-02T21:20:53.005Z,4.40
2019-05-02T21:23:21.963Z,4.40
2019-05-02T21:25:52.512Z,4.40
2019-05-02T21:28:22.741Z,4.30
2019-05-02T21:30:52.435Z,4.30
2019-05-02T21:33:36.318Z,4.20
2019-05-02T21:36:05.477Z,4.20
2019-05-02T21:38:34.261Z,4.10
2019-05-02T21:41:03.247Z,4.10
2019-05-02T21:43:31.939Z,4.10
2019-05-02T21:46:02.234Z,4.00
2019-05-02T21:48:32.512Z,4.00
2019-05-02T21:51:14.465Z,4.00
2019-05-02T21:53:54.939Z,4.00
2019-05-02T21:56:22.491Z,4.00
2019-05-02T21:59:09.439Z,3.90
2019-05-02T22:01:42.591Z,3.90
2019-05-02T22:04:13.153Z,3.80
2019-05-02T22:06:42.758Z,3.80
2019-05-02T22:09:12.294Z,3.80
2019-05-02T22:11:42.953Z,3.80
2019-05-02T22:14:13.343Z,3.80
2019-05-02T22:16:42.390Z,3.80
2019-05-02T22:19:11.080Z,3.80
2019-05-02T22:21:39.836Z,3.80
2019-05-02T22:24:11.679Z,3.70
2019-05-02T22:26:38.789Z,3.70
2019-05-02T22:29:07.611Z,3.70
2019-05-02T22:31:36.381Z,3.80
2019-05-02T22:34:05.391Z,3.80
2019-05-02T22:36:34.163Z,3.80
2019-05-02T22:39:16.239Z,3.80
2019-05-02T22:41:44.924Z,3.80
2019-05-02T22:44:13.546Z,3.80
2019-05-02T22:46:43.987Z,3.90
2019-05-02T22:49:14.481Z,3.90
2019-05-02T22:51:44.152Z,3.90
2019-05-02T22:54:24.231Z,3.80
2019-05-02T22:56:43.482Z,3.80
2019-05-02T22:59:12.146Z,3.80
2019-05-02T23:01:42.148Z,3.80
2019-05-02T23:04:12.758Z,3.80
2019-05-02T23:06:43.857Z,3.80
2019-05-02T23:09:12.893Z,3.70
2019-05-02T23:11:42.539Z,3.70
2019-05-02T23:14:11.585Z,3.70
2019-05-02T23:16:42.717Z,3.60
2019-05-02T23:19:12.361Z,3.70
2019-05-02T23:21:42.321Z,3.70
2019-05-02T23:24:14.578Z,3.60
2019-05-02T23:26:44.790Z,3.60
2019-05-02T23:29:15.158Z,3.60
2019-05-02T23:31:43.963Z,3.70
2019-05-02T23:34:12.677Z,3.60
2019-05-02T23:36:41.662Z,3.70
2019-05-02T23:39:12.483Z,3.60
2019-05-02T23:41:42.069Z,3.60
2019-05-02T23:44:12.323Z,3.60
2019-05-02T23:46:42.406Z,3.50
2019-05-02T23:49:12.796Z,3.60
2019-05-02T23:51:42.667Z,3.50
2019-05-02T23:54:12.802Z,3.50
2019-05-02T23:56:43.092Z,3.50
2019-05-02T23:59:12.154Z,3.40
